Terminal Aerodrome Forecast
Issued by NWS

Home | Current Version | Previous Version | Text Only | Print | Product List | Glossary On
Versions: 1 2 3 4 5 6 7 8 9 10 11 12 13 14 15 16 17 18 19
000
FTUS46 KSEW 172300 RRA
TAFBLI
TAF
KBLI 172344Z 1800/1824 15013G20KT P6SM -RA BKN025 OVC060
     FM180100 18015G25KT 5SM SHRA BKN020 OVC040
     FM180200 18013G22KT P6SM -SHRA BKN030 BKN050
     FM180600 18013KT P6SM BKN035 BKN050
     FM181800 20008KT P6SM SCT035 SCT050=

USA.gov is the U.S. government's official web portal to all federal, state and local government web resources and services.